Time;durP1;ratioP1;P1;durP2;ratioP2;P2;SDS_P1;SDS_P2;PMS_P1;PMS_P2;Temp;Humidity;BMP_temperature;BMP_pressure;BME280_temperature;BME280_humidity;BME280_pressure;Samples;Min_cycle;Max_cycle;Signal;HPM_P1;HPM_P2
2023/06/23 00:01:22;;;;;;;;;6.00;6.00;;;;;22.65;45.50;101730.81;5021548;28;46283;-72
2023/06/23 00:03:48;;;;;;;;;9.00;7.50;;;;;22.65;45.65;101734.34;5021296;28;45186;-72
2023/06/23 00:06:14;;;;;;;;;9.25;7.75;;;;;22.60;45.75;101731.03;5021597;28;45254;-72
2023/06/23 00:08:40;;;;;;;;;9.50;7.00;;;;;22.54;46.00;101728.66;5021487;28;45234;-72
2023/06/23 00:11:10;;;;;;;;;8.00;7.50;;;;;22.52;45.97;101742.13;5021265;28;46313;-71
2023/06/23 00:13:36;;;;;;;;;8.50;7.25;;;;;22.49;45.79;101734.25;5021430;28;45304;-71
2023/06/23 00:16:04;;;;;;;;;8.50;8.50;;;;;22.46;46.05;101741.56;5021323;28;45349;-71
2023/06/23 00:18:29;;;;;;;;;8.50;7.50;;;;;22.44;45.79;101746.13;5020918;28;45337;-71
2023/06/23 00:20:55;;;;;;;;;11.25;8.00;;;;;22.40;45.96;101740.03;5021144;28;46172;-71
2023/06/23 00:23:20;;;;;;;;;10.50;9.00;;;;;22.39;45.81;101749.03;5021125;28;45297;-71
2023/06/23 00:25:46;;;;;;;;;11.00;9.25;;;;;22.35;45.89;101745.63;5019475;28;45344;-71
2023/06/23 00:28:11;;;;;;;;;9.25;8.00;;;;;22.36;45.85;101746.47;5019770;28;45795;-71
2023/06/23 00:30:36;;;;;;;;;8.75;8.00;;;;;22.32;45.94;101748.41;5019733;28;46797;-71
2023/06/23 00:33:03;;;;;;;;;8.00;6.00;;;;;;;;5020685;28;45458;-71
2023/06/23 00:35:28;;;;;;;;;8.75;7.50;;;;;22.28;46.51;101751.34;5021521;28;45408;-71
2023/06/23 00:37:53;;;;;;;;;12.50;9.00;;;;;22.25;46.31;101749.69;5020914;28;45352;-71
2023/06/23 00:40:22;;;;;;;;;8.50;6.75;;;;;22.22;45.95;101749.81;5021036;28;45335;-71
2023/06/23 00:42:54;;;;;;;;;8.25;8.00;;;;;22.18;46.01;101746.41;5020916;28;45423;-71
2023/06/23 00:45:21;;;;;;;;;8.75;8.00;;;;;22.15;46.23;101748.34;5021071;28;45367;-71
2023/06/23 00:47:47;;;;;;;;;6.50;6.25;;;;;22.12;46.10;101752.03;5020652;28;45483;-71
2023/06/23 00:50:18;;;;;;;;;8.25;8.25;;;;;22.08;46.53;101740.59;5020839;28;47165;-71
2023/06/23 00:52:50;;;;;;;;;10.00;8.50;;;;;22.07;46.55;101736.22;5035974;28;45473;-71
2023/06/23 00:55:17;;;;;;;;;7.25;7.25;;;;;22.07;46.44;101732.66;5019449;28;45355;-71
2023/06/23 00:57:42;;;;;;;;;10.50;9.50;;;;;22.04;46.31;101735.50;5019226;28;45535;-71
2023/06/23 01:00:20;;;;;;;;;13.50;10.00;;;;;22.03;46.57;101741.78;5020473;28;46049;-71
2023/06/23 01:02:50;;;;;;;;;11.00;10.25;;;;;22.01;46.51;101740.97;5020361;28;45222;-71
2023/06/23 01:05:17;;;;;;;;;7.75;6.75;;;;;21.96;46.26;101743.88;5020509;28;45355;-71
2023/06/23 01:07:45;;;;;;;;;11.25;7.75;;;;;21.99;46.30;101750.91;5020319;28;45410;-70
2023/06/23 01:10:36;;;;;;;;;9.50;9.50;;;;;21.95;46.47;101744.81;5020346;28;46139;-70
2023/06/23 01:13:17;;;;;;;;;9.00;7.50;;;;;21.96;46.62;101757.25;5020521;28;45438;-70
2023/06/23 01:15:51;;;;;;;;;9.25;9.25;;;;;21.96;46.59;101759.06;5020220;28;45317;-71
2023/06/23 01:18:44;;;;;;;;;11.25;10.50;;;;;21.95;46.33;101762.66;5035434;28;45254;-70
2023/06/23 01:21:15;;;;;;;;;8.50;8.50;;;;;21.88;46.48;101748.72;5020248;28;45506;-70
2023/06/23 01:23:53;;;;;;;;;7.25;5.50;;;;;21.89;46.79;101761.16;5018854;28;45346;-70
2023/06/23 01:26:54;;;;;;;;;6.50;6.50;;;;;21.83;46.84;101764.97;5020128;28;45335;-70
2023/06/23 01:29:28;;;;;;;;;10.25;9.00;;;;;21.79;46.86;101757.16;5000671;28;45295;-70
2023/06/23 01:32:01;;;;;;;;;10.25;10.00;;;;;21.80;47.00;101762.44;5035116;28;46470;-71
2023/06/23 01:34:42;;;;;;;;;7.50;6.50;;;;;21.77;46.58;101761.72;5020134;28;45294;-70
2023/06/23 01:37:11;;;;;;;;;6.00;6.00;;;;;21.80;46.67;101769.56;5035750;28;45343;-70
2023/06/23 01:39:41;;;;;;;;;9.25;9.00;;;;;21.79;47.14;101765.19;5018667;28;45372;-70
2023/06/23 01:42:12;;;;;;;;;7.00;7.00;;;;;21.70;46.96;101745.94;5035104;28;45397;-70
2023/06/23 01:44:43;;;;;;;;;9.75;8.25;;;;;21.73;46.96;101763.66;5020192;28;45395;-70
2023/06/23 01:47:16;;;;;;;;;11.00;9.00;;;;;21.76;46.54;101768.88;5019924;28;45293;-70
2023/06/23 01:49:43;;;;;;;;;9.00;8.00;;;;;21.74;47.25;101770.75;5018504;28;45316;-70
2023/06/23 01:52:11;;;;;;;;;8.50;8.50;;;;;21.73;46.93;101764.50;5019763;28;45292;-70
2023/06/23 01:54:39;;;;;;;;;9.50;8.25;;;;;21.72;47.04;101762.78;5019789;28;45249;-70
2023/06/23 01:57:06;;;;;;;;;10.75;10.00;;;;;21.73;46.92;101777.88;5019821;28;45273;-70
2023/06/23 01:59:33;;;;;;;;;11.50;9.75;;;;;21.72;47.02;101786.88;5019676;28;45474;-70
2023/06/23 02:02:01;;;;;;;;;8.25;8.00;;;;;21.68;47.31;101784.38;5019315;28;45472;-70
2023/06/23 02:04:29;;;;;;;;;10.00;10.00;;;;;21.65;47.48;101793.41;5018323;28;45267;-70
2023/06/23 02:06:56;;;;;;;;;11.00;10.25;;;;;21.59;47.12;101789.19;5022283;28;45292;-69
2023/06/23 02:09:25;;;;;;;;;12.00;12.00;;;;;21.55;47.44;101790.28;5023370;28;45377;-69
2023/06/23 02:11:53;;;;;;;;;8.00;6.00;;;;;21.54;47.39;101793.84;5022983;28;45340;-69
2023/06/23 02:14:20;;;;;;;;;9.75;6.75;;;;;21.54;47.35;101799.19;5023264;28;45356;-69
2023/06/23 02:16:47;;;;;;;;;10.25;9.00;;;;;21.52;47.17;101805.53;5022971;28;45407;-69
2023/06/23 02:19:15;;;;;;;;;12.75;10.00;;;;;21.50;47.18;101804.75;5022984;28;45431;-69
2023/06/23 02:21:43;;;;;;;;;10.00;8.25;;;;;21.49;47.33;101803.03;5022957;28;45681;-69
2023/06/23 02:24:10;;;;;;;;;7.00;7.00;;;;;21.46;47.21;101797.78;5038517;28;45492;-69
2023/06/23 02:26:37;;;;;;;;;10.50;10.00;;;;;21.44;47.25;101784.50;5022902;28;45296;-69
2023/06/23 02:29:06;;;;;;;;;10.25;9.00;;;;;21.43;47.18;101788.09;5023069;28;45494;-68
2023/06/23 02:31:32;;;;;;;;;10.25;10.25;;;;;21.40;47.55;101791.78;5022783;28;46467;-68
2023/06/23 02:33:58;;;;;;;;;11.50;10.00;;;;;21.35;47.76;101796.44;5021476;28;45279;-68
2023/06/23 02:36:29;;;;;;;;;10.00;8.00;;;;;21.32;47.99;101796.59;5022989;28;45228;-69
2023/06/23 02:38:57;;;;;;;;;12.25;12.00;;;;;21.30;47.54;101795.78;5038382;28;45388;-69
2023/06/23 02:41:26;;;;;;;;;11.00;11.00;;;;;21.29;47.76;101796.72;5022289;28;46366;-69
2023/06/23 02:43:56;;;;;;;;;10.00;10.00;;;;;21.27;47.52;101798.59;5038052;28;45386;-69
2023/06/23 02:46:32;;;;;;;;;10.75;8.50;;;;;21.25;47.98;101811.16;5021434;28;45254;-68
2023/06/23 02:49:05;;;;;;;;;9.50;9.50;;;;;21.21;47.35;101818.44;5022538;28;45242;-70
2023/06/23 02:51:34;;;;;;;;;8.75;8.50;;;;;21.19;47.81;101814.94;5021391;28;47524;-70
2023/06/23 02:54:07;;;;;;;;;9.75;9.25;;;;;21.20;47.95;101821.16;5022369;28;45436;-70
2023/06/23 02:56:40;;;;;;;;;10.00;9.50;;;;;21.17;47.90;101830.19;5021386;28;45250;-70
2023/06/23 02:59:08;;;;;;;;;5.50;5.50;;;;;21.15;47.84;101823.16;5037944;28;45471;-68
2023/06/23 03:01:38;;;;;;;;;12.00;9.00;;;;;21.06;48.01;101811.06;5013905;28;45219;-68
2023/06/23 03:04:04;;;;;;;;;10.75;9.00;;;;;21.08;48.17;101827.88;5019990;28;45357;-69
2023/06/23 03:06:34;;;;;;;;;10.25;9.50;;;;;21.04;47.73;101827.16;5037814;28;45498;-69
2023/06/23 03:09:00;;;;;;;;;12.00;9.00;;;;;20.97;47.99;101828.34;5021100;28;45592;-69
2023/06/23 03:11:25;;;;;;;;;9.00;9.00;;;;;20.98;47.85;101832.75;5022182;28;45245;-69
2023/06/23 03:13:51;;;;;;;;;10.25;10.25;;;;;20.95;48.24;101830.19;5037610;28;45340;-69
2023/06/23 03:16:30;;;;;;;;;10.50;8.25;;;;;20.93;48.56;101829.41;5022337;28;45426;-69
2023/06/23 03:19:10;;;;;;;;;12.25;9.75;;;;;20.91;48.09;101834.78;5021062;28;45307;-69
2023/06/23 03:21:38;;;;;;;;;12.75;9.00;;;;;20.85;48.23;101823.47;5021959;28;45475;-70
2023/06/23 03:24:08;;;;;;;;;8.25;8.25;;;;;20.83;48.38;101820.00;5009356;28;45383;-70
2023/06/23 03:26:40;;;;;;;;;9.75;8.50;;;;;20.80;48.26;101828.16;5037175;28;45289;-69
2023/06/23 03:29:08;;;;;;;;;9.25;8.00;;;;;20.77;48.52;101831.81;5020569;28;45383;-68
2023/06/23 03:31:40;;;;;;;;;8.00;8.00;;;;;20.72;48.42;101828.47;5021840;28;45169;-68
2023/06/23 03:34:06;;;;;;;;;8.75;7.50;;;;;20.71;48.46;101834.72;5037143;28;45286;-68
2023/06/23 03:36:34;;;;;;;;;8.00;6.50;;;;;20.71;48.64;101840.91;5022117;28;45175;-69
2023/06/23 03:39:07;;;;;;;;;6.75;6.00;;;;;20.71;48.26;101840.91;5022096;28;45473;-70
2023/06/23 03:41:34;;;;;;;;;8.50;7.50;;;;;20.71;48.06;101845.41;5032068;28;47729;-70
2023/06/23 03:44:12;;;;;;;;;7.50;6.75;;;;;20.69;48.34;101848.09;5011418;28;45849;-70
2023/06/23 03:46:50;;;;;;;;;9.25;7.50;;;;;20.70;48.08;101851.63;5021967;28;45409;-70
2023/06/23 03:49:17;;;;;;;;;9.00;8.50;;;;;20.65;48.46;101849.13;5037129;28;46283;-70
2023/06/23 03:51:46;;;;;;;;;8.00;6.25;;;;;20.62;48.80;101846.59;5021980;28;45249;-70
2023/06/23 03:54:18;;;;;;;;;11.00;6.25;;;;;20.57;48.84;101846.78;5021499;28;45418;-70
2023/06/23 03:56:47;;;;;;;;;9.50;7.00;;;;;20.53;49.00;101850.50;5021774;28;45206;-70
2023/06/23 03:59:15;;;;;;;;;11.00;9.00;;;;;20.50;48.83;101850.59;5021595;28;45257;-69
2023/06/23 04:01:42;;;;;;;;;7.50;7.50;;;;;20.46;48.73;101852.53;5020133;28;48847;-69
2023/06/23 04:04:10;;;;;;;;;10.75;9.50;;;;;20.43;48.85;101857.97;5021123;28;45229;-69
2023/06/23 04:06:37;;;;;;;;;8.25;7.25;;;;;20.40;48.99;101858.13;5020390;28;45356;-69
2023/06/23 04:09:04;;;;;;;;;9.25;9.25;;;;;20.35;49.15;101856.53;5016782;28;45875;-69
2023/06/23 04:11:31;;;;;;;;;10.00;10.00;;;;;20.30;48.99;101852.25;5011931;28;46689;-69
2023/06/23 04:13:58;;;;;;;;;12.00;11.00;;;;;20.28;48.94;101866.56;5021412;28;45166;-69
2023/06/23 04:16:24;;;;;;;;;8.25;8.00;;;;;20.27;48.93;101868.34;5036657;28;45519;-69
2023/06/23 04:18:51;;;;;;;;;9.00;9.00;;;;;20.23;49.17;101871.22;5036363;28;45186;-69
2023/06/23 04:21:18;;;;;;;;;9.50;7.50;;;;;20.20;48.99;101880.22;5021167;28;46318;-69
2023/06/23 04:23:45;;;;;;;;;8.25;7.00;;;;;20.20;48.91;101884.66;5021094;28;45324;-69
2023/06/23 04:26:13;;;;;;;;;9.50;8.25;;;;;20.18;49.04;101884.72;5021210;28;45324;-69
2023/06/23 04:28:41;;;;;;;;;12.50;10.00;;;;;20.20;48.91;101896.22;5019427;28;45543;-69
2023/06/23 04:31:08;;;;;;;;;9.00;7.50;;;;;20.19;49.07;101877.56;5021033;28;46279;-69
2023/06/23 04:33:35;;;;;;;;;12.00;10.25;;;;;20.18;48.84;101871.38;5020718;28;45366;-69
2023/06/23 04:36:13;;;;;;;;;11.50;11.00;;;;;20.18;48.95;101868.72;5036496;28;45502;-69
2023/06/23 04:38:45;;;;;;;;;11.50;11.25;;;;;20.20;49.06;101879.31;5021257;28;45287;-69
2023/06/23 04:41:17;;;;;;;;;12.00;9.50;;;;;20.18;48.97;101882.06;5020552;28;45470;-70
2023/06/23 04:43:46;;;;;;;;;11.50;9.00;;;;;20.17;49.13;101882.13;5020938;28;45379;-69
2023/06/23 04:46:22;;;;;;;;;8.00;8.00;;;;;20.17;48.89;101893.66;5036297;28;45290;-69
2023/06/23 04:48:52;;;;;;;;;11.75;9.25;;;;;20.21;49.48;101899.75;5020844;28;45228;-69
2023/06/23 04:51:29;;;;;;;;;10.00;9.00;;;;;20.17;49.23;101887.44;5035988;28;45572;-69
2023/06/23 04:54:00;;;;;;;;;9.75;9.75;;;;;20.20;49.63;101903.34;5020812;28;45447;-69
2023/06/23 04:56:32;;;;;;;;;9.25;9.25;;;;;20.22;49.54;101909.50;5035937;28;45257;-69
2023/06/23 04:59:00;;;;;;;;;10.75;8.00;;;;;20.24;49.47;101918.34;5020685;28;45433;-69
2023/06/23 05:01:27;;;;;;;;;8.25;8.25;;;;;20.24;49.45;101921.00;5020726;28;45256;-69
2023/06/23 05:03:56;;;;;;;;;9.50;8.25;;;;;20.24;49.20;101919.19;5020248;28;45396;-69
2023/06/23 05:06:23;;;;;;;;;9.50;6.75;;;;;20.25;49.54;101915.59;5020673;28;45304;-70
2023/06/23 05:08:51;;;;;;;;;11.75;8.00;;;;;20.24;49.52;101911.19;5035854;28;45424;-69
2023/06/23 05:11:18;;;;;;;;;11.00;8.25;;;;;20.27;49.98;101916.41;5020338;28;45293;-70
2023/06/23 05:13:46;;;;;;;;;9.00;9.00;;;;;20.30;49.40;101918.09;5020322;28;45442;-69
2023/06/23 05:16:14;;;;;;;;;12.75;11.00;;;;;20.29;49.52;101906.53;5020381;28;45212;-64
2023/06/23 05:18:41;;;;;;;;;11.00;9.75;;;;;20.35;49.77;101932.16;5018835;28;45543;-64
2023/06/23 05:21:09;;;;;;;;;13.25;10.50;;;;;20.35;49.60;101925.94;5020325;28;45316;-64
2023/06/23 05:23:37;;;;;;;;;10.00;9.00;;;;;20.33;49.97;101931.34;5020157;28;45556;-64
2023/06/23 05:26:06;;;;;;;;;13.25;10.25;;;;;20.32;49.42;101924.25;5020343;28;45251;-64
2023/06/23 05:28:35;;;;;;;;;10.25;10.25;;;;;20.28;50.04;101918.16;5020074;28;45377;-64
2023/06/23 05:31:03;;;;;;;;;9.50;8.00;;;;;20.32;49.72;101928.72;5035470;28;47238;-64
2023/06/23 05:33:33;;;;;;;;;12.00;9.00;;;;;20.30;49.86;101921.63;5016562;28;45488;-64
2023/06/23 05:35:59;;;;;;;;;11.50;10.75;;;;;20.33;49.91;101928.66;5017266;28;45448;-64
2023/06/23 05:38:27;;;;;;;;;10.25;10.25;;;;;20.38;49.99;101928.50;5019596;28;45502;-64
2023/06/23 05:40:52;;;;;;;;;10.50;9.00;;;;;20.40;49.73;101931.97;5012208;28;45549;-63
2023/06/23 05:43:18;;;;;;;;;10.00;8.75;;;;;20.39;49.82;101927.56;5013528;28;45199;-63
2023/06/23 05:45:43;;;;;;;;;10.75;9.25;;;;;20.41;49.89;101934.56;5019862;28;45337;-64
2023/06/23 05:48:31;;;;;;;;;8.00;6.25;;;;;20.43;50.16;101932.72;5034994;28;45306;-62
2023/06/23 05:51:00;;;;;;;;;12.00;10.25;;;;;20.44;49.86;101929.13;5033568;28;47498;-63
2023/06/23 05:53:29;;;;;;;;;10.75;10.00;;;;;20.46;49.90;101937.97;5019612;28;45279;-63
2023/06/23 05:56:07;;;;;;;;;11.25;10.00;;;;;20.53;49.96;101938.59;5019879;28;45224;-63
2023/06/23 05:58:38;;;;;;;;;10.50;9.25;;;;;20.55;50.21;101936.75;5015314;28;45273;-63
2023/06/23 06:01:09;;;;;;;;;10.75;9.50;;;;;20.55;50.11;101936.75;5019422;28;45356;-64
2023/06/23 06:03:39;;;;;;;;;10.00;9.00;;;;;20.58;50.39;101943.78;5034552;28;46565;-68
2023/06/23 06:06:07;;;;;;;;;10.75;9.25;;;;;20.58;49.96;101938.44;5018486;28;45240;-65
2023/06/23 06:08:35;;;;;;;;;12.50;7.50;;;;;20.61;50.24;101941.00;5017835;28;45246;-66
2023/06/23 06:11:03;;;;;;;;;8.75;8.50;;;;;20.64;50.03;101932.88;5019106;28;46205;-65
2023/06/23 06:13:36;;;;;;;;;12.00;10.00;;;;;20.69;49.96;101948.69;5029361;28;45962;-65
2023/06/23 06:16:07;;;;;;;;;8.50;7.75;;;;;20.69;50.21;101944.25;5019237;28;45161;-65
2023/06/23 06:18:34;;;;;;;;;10.25;10.00;;;;;20.72;50.59;101941.47;5033335;28;45425;-66
2023/06/23 06:21:01;;;;;;;;;9.25;6.75;;;;;20.72;49.95;101944.16;5019207;28;45470;-66
2023/06/23 06:23:31;;;;;;;;;8.25;7.00;;;;;20.77;50.08;101952.84;5018795;28;45245;-65
2023/06/23 06:25:59;;;;;;;;;10.00;9.00;;;;;20.81;50.63;101950.09;5004732;28;45365;-77
2023/06/23 06:28:26;;;;;;;;;9.75;8.00;;;;;20.82;50.48;101952.69;5019178;28;45337;-76
2023/06/23 06:30:54;;;;;;;;;8.00;8.00;;;;;20.82;50.61;101954.47;5019392;28;46383;-78
2023/06/23 06:33:20;;;;;;;;;9.75;9.75;;;;;20.84;50.29;101957.97;5034312;28;45292;-78
2023/06/23 06:35:48;;;;;;;;;9.50;8.50;;;;;20.84;50.38;101963.31;5017932;28;45194;-79
2023/06/23 06:38:16;;;;;;;;;12.25;9.25;;;;;20.87;50.10;101956.06;5019203;28;45679;-78
2023/06/23 06:40:43;;;;;;;;;9.25;8.00;;;;;20.90;50.26;101958.59;5017635;28;48227;-78
2023/06/23 06:43:09;;;;;;;;;5.50;4.00;;;;;20.91;50.88;101948.81;5034326;28;45503;-77
2023/06/23 06:45:34;;;;;;;;;9.75;6.00;;;;;20.96;50.53;101952.16;5017938;28;45218;-78
2023/06/23 06:48:01;;;;;;;;;11.00;10.00;;;;;20.97;50.52;101953.03;5018578;28;53778;-77
2023/06/23 06:50:28;;;;;;;;;8.50;8.25;;;;;21.01;50.27;101950.19;5019030;28;45573;-78
2023/06/23 06:52:54;;;;;;;;;9.25;7.75;;;;;21.05;50.35;101950.94;5036794;28;46269;-78
2023/06/23 06:55:21;;;;;;;;;12.75;7.75;;;;;21.06;50.57;101958.03;5022503;28;45459;-78
2023/06/23 06:57:48;;;;;;;;;10.75;9.50;;;;;21.07;50.07;101955.28;5022557;28;45502;-78
2023/06/23 07:00:18;;;;;;;;;10.00;10.00;;;;;21.10;50.60;101955.16;5037529;28;46760;-78
2023/06/23 07:02:45;;;;;;;;;8.50;7.00;;;;;21.10;50.60;101949.81;5037617;28;45777;-79
2023/06/23 07:05:11;;;;;;;;;11.50;9.75;;;;;21.12;50.01;101955.13;5022488;28;45330;-80
2023/06/23 07:07:37;;;;;;;;;10.00;8.50;;;;;21.16;50.18;101955.88;5037891;28;45352;-79
2023/06/23 07:10:03;;;;;;;;;10.75;10.25;;;;;21.19;50.44;101953.91;5037124;28;47843;-78
2023/06/23 07:12:30;;;;;;;;;11.00;10.50;;;;;21.21;50.21;101951.19;5037649;28;45944;-78
2023/06/23 07:14:55;;;;;;;;;10.00;10.00;;;;;21.21;50.51;101951.19;5004560;28;45315;-79
2023/06/23 07:17:20;;;;;;;;;14.00;12.50;;;;;21.25;50.71;101947.47;5021527;28;54285;-78
2023/06/23 07:19:46;;;;;;;;;12.75;10.00;;;;;21.29;50.35;101949.06;5022118;28;46147;-78
2023/06/23 07:22:11;;;;;;;;;9.25;7.75;;;;;21.29;50.61;101933.03;5037316;28;45573;-78
2023/06/23 07:24:36;;;;;;;;;11.75;10.75;;;;;21.33;50.53;101942.66;5022352;28;45256;-78
2023/06/23 07:27:02;;;;;;;;;11.75;10.50;;;;;21.36;50.77;101939.88;5017391;28;45556;-78
2023/06/23 07:29:27;;;;;;;;;10.75;10.75;;;;;21.40;50.13;101938.81;5017528;28;46181;-78
2023/06/23 07:31:53;;;;;;;;;12.00;10.25;;;;;21.35;50.54;101923.91;5014704;28;45312;-78
2023/06/23 07:34:18;;;;;;;;;9.00;9.00;;;;;21.45;50.13;101938.63;5033932;28;45586;-78
2023/06/23 07:36:43;;;;;;;;;5.00;5.00;;;;;21.47;50.31;101938.56;5020960;28;45567;-78
2023/06/23 07:39:10;;;;;;;;;11.75;8.00;;;;;21.49;50.71;101934.91;5022070;28;45309;-78
2023/06/23 07:41:35;;;;;;;;;11.50;8.50;;;;;21.54;50.65;101934.72;5021823;28;45305;-78
2023/06/23 07:44:01;;;;;;;;;9.75;9.00;;;;;21.55;50.48;101941.81;5037235;28;45347;-78
2023/06/23 07:46:27;;;;;;;;;12.75;11.00;;;;;21.57;50.27;101938.16;5037162;28;45361;-79
2023/06/23 07:48:52;;;;;;;;;10.25;8.00;;;;;21.63;49.91;101949.53;5020236;28;47841;-78
2023/06/23 07:51:17;;;;;;;;;9.75;8.50;;;;;21.65;49.92;101951.22;5021998;28;45252;-79
2023/06/23 07:53:43;;;;;;;;;8.25;8.25;;;;;21.65;50.46;101945.88;5023116;28;45229;-78
2023/06/23 07:56:12;;;;;;;;;7.00;7.00;;;;;21.67;50.37;101952.03;5021836;28;45162;-79
2023/06/23 07:58:37;;;;;;;;;8.50;8.50;;;;;21.71;50.43;101950.06;5020739;28;47017;-78
2023/06/23 08:01:03;;;;;;;;;11.00;10.00;;;;;21.73;50.51;101941.03;5021930;28;45332;-78
2023/06/23 08:03:28;;;;;;;;;11.75;9.25;;;;;21.79;50.50;101949.78;5019598;28;45380;-78
2023/06/23 08:05:53;;;;;;;;;10.00;9.00;;;;;21.81;50.20;101947.88;5036920;28;45669;-80
2023/06/23 08:08:19;;;;;;;;;8.00;6.75;;;;;21.87;50.25;101958.31;5021524;28;45911;-80
2023/06/23 08:10:44;;;;;;;;;9.50;9.50;;;;;21.84;50.06;101950.44;5021644;28;45330;-79
2023/06/23 08:13:09;;;;;;;;;8.00;7.25;;;;;21.90;49.99;101958.22;5020429;28;45341;-79
2023/06/23 08:15:35;;;;;;;;;10.25;10.25;;;;;21.97;50.01;101969.50;5036593;28;45901;-78
2023/06/23 08:18:00;;;;;;;;;10.25;10.25;;;;;21.99;50.39;101967.66;5020998;28;51457;-79
2023/06/23 08:20:25;;;;;;;;;13.75;12.75;;;;;22.02;50.20;101965.69;5021349;28;45336;-79
2023/06/23 08:22:51;;;;;;;;;9.50;9.50;;;;;22.08;50.27;101978.81;5019956;28;45350;-80
2023/06/23 08:25:16;;;;;;;;;9.50;8.25;;;;;22.11;50.08;101977.81;5021236;28;45185;-79
2023/06/23 08:27:41;;;;;;;;;10.50;7.50;;;;;22.15;49.81;101976.75;5021201;28;45332;-79
2023/06/23 08:30:07;;;;;;;;;8.25;8.00;;;;;22.21;50.15;101991.66;5021120;28;50589;-79
2023/06/23 08:32:32;;;;;;;;;9.25;9.25;;;;;22.23;50.23;101979.09;5020986;28;45336;-78
2023/06/23 08:34:58;;;;;;;;;9.50;8.50;;;;;22.24;49.90;101987.03;5020837;28;45654;-78
2023/06/23 08:37:23;;;;;;;;;8.50;7.50;;;;;22.33;49.85;101993.81;5021011;28;45162;-80
2023/06/23 08:39:49;;;;;;;;;10.25;10.00;;;;;22.32;49.79;101983.16;5021114;28;45412;-78
2023/06/23 08:42:14;;;;;;;;;7.25;6.00;;;;;22.40;50.03;101992.63;5036332;28;45264;-77
2023/06/23 08:44:42;;;;;;;;;10.25;8.00;;;;;22.43;49.98;101996.09;5021241;28;45216;-77
2023/06/23 08:47:12;;;;;;;;;11.25;11.00;;;;;22.48;50.24;101994.13;5019353;28;47067;-77
2023/06/23 08:49:41;;;;;;;;;7.50;7.50;;;;;22.55;50.07;102006.25;5020825;28;45247;-78
2023/06/23 08:52:08;;;;;;;;;10.00;8.25;;;;;22.59;49.89;102001.66;5019466;28;45427;-78
2023/06/23 08:54:35;;;;;;;;;6.50;5.00;;;;;22.62;50.27;101991.66;5036128;28;45447;-78
2023/06/23 08:57:01;;;;;;;;;8.25;8.25;;;;;22.68;49.95;102004.78;5020301;28;45545;-78
2023/06/23 08:59:26;;;;;;;;;6.00;6.00;;;;;22.71;50.01;101999.28;5020878;28;45234;-77
2023/06/23 09:01:52;;;;;;;;;7.50;6.00;;;;;22.76;49.86;101999.06;5020549;28;45368;-77
2023/06/23 09:04:19;;;;;;;;;8.25;8.25;;;;;22.83;50.02;102007.69;5020850;28;45351;-77
2023/06/23 09:06:44;;;;;;;;;7.50;6.50;;;;;22.87;49.63;102012.00;5035885;28;47798;-78
2023/06/23 09:09:10;;;;;;;;;8.75;6.00;;;;;22.93;49.85;102011.72;5020856;28;45190;-78
2023/06/23 09:11:35;;;;;;;;;7.25;7.25;;;;;22.98;49.65;102007.00;5020695;28;45220;-78
2023/06/23 09:14:02;;;;;;;;;12.75;11.25;;;;;23.03;49.64;102004.09;5019485;28;45542;-78
2023/06/23 09:16:28;;;;;;;;;9.25;9.25;;;;;23.08;49.87;102003.88;5017535;28;47297;-78
2023/06/23 09:18:53;;;;;;;;;8.50;8.50;;;;;23.15;49.55;102008.00;5019097;28;46266;-79
2023/06/23 09:21:20;;;;;;;;;11.75;8.50;;;;;23.20;49.58;102003.34;5035769;28;45495;-79
2023/06/23 09:24:01;;;;;;;;;8.00;6.50;;;;;23.28;49.51;102011.91;5020529;28;45581;-78
2023/06/23 09:26:26;;;;;;;;;9.00;7.00;;;;;23.32;49.17;102017.94;5035269;28;47566;-78
2023/06/23 09:28:52;;;;;;;;;12.00;10.25;;;;;23.40;49.44;102018.47;5018833;28;45456;-78
2023/06/23 09:31:18;;;;;;;;;7.75;6.50;;;;;23.45;49.32;102015.56;5020293;28;45444;-79
2023/06/23 09:33:53;;;;;;;;;7.50;6.00;;;;;23.51;49.39;102017.94;5020016;28;45426;-79
2023/06/23 09:36:19;;;;;;;;;12.25;8.25;;;;;23.58;49.36;102013.16;5006341;28;48481;-79
2023/06/23 09:38:45;;;;;;;;;8.00;8.00;;;;;23.59;49.13;101999.66;5018913;28;45433;-79
2023/06/23 09:41:13;;;;;;;;;7.75;7.50;;;;;23.70;48.92;102013.41;5020083;28;45372;-78
2023/06/23 09:43:50;;;;;;;;;5.00;5.00;;;;;23.77;49.15;102013.09;5020099;28;45257;-78
2023/06/23 09:46:17;;;;;;;;;10.00;7.00;;;;;23.83;49.20;102007.44;5019960;28;45958;-78
2023/06/23 09:48:44;;;;;;;;;4.00;4.00;;;;;23.87;49.08;102006.31;5019727;28;45324;-79
2023/06/23 09:51:10;;;;;;;;;7.00;6.00;;;;;23.94;48.72;102009.63;5018871;28;45270;-78
2023/06/23 09:53:37;;;;;;;;;8.00;5.00;;;;;24.01;48.83;102003.84;5019915;28;45365;-78
2023/06/23 09:56:05;;;;;;;;;6.75;5.50;;;;;24.03;48.81;101993.03;5035090;28;47327;-78
2023/06/23 09:58:38;;;;;;;;;5.75;4.25;;;;;24.11;48.89;101995.31;5019741;28;46245;-77
2023/06/23 10:01:07;;;;;;;;;7.75;5.50;;;;;24.18;48.42;101997.59;5035129;28;45482;-77
2023/06/23 10:03:45;;;;;;;;;5.00;5.00;;;;;24.23;48.06;101993.81;5019458;28;45395;-77
2023/06/23 10:06:32;;;;;;;;;6.25;6.25;;;;;24.32;48.09;101994.19;5035012;28;47595;-78
2023/06/23 10:08:59;;;;;;;;;6.00;5.75;;;;;24.35;48.43;101990.47;5019814;28;45238;-77
2023/06/23 10:11:32;;;;;;;;;5.25;3.50;;;;;24.43;48.31;101990.94;5035074;28;45324;-78
2023/06/23 10:14:00;;;;;;;;;6.25;6.00;;;;;24.50;48.33;101986.97;5019664;28;45490;-77
2023/06/23 10:16:27;;;;;;;;;5.00;5.00;;;;;24.58;48.21;101986.56;5019070;28;46422;-77
2023/06/23 10:18:52;;;;;;;;;5.75;4.50;;;;;24.66;48.26;101987.03;5034956;28;45831;-77
2023/06/23 10:21:18;;;;;;;;;8.00;5.25;;;;;24.70;47.87;101978.81;5034810;28;45351;-77
2023/06/23 10:23:45;;;;;;;;;6.00;5.25;;;;;24.82;48.05;101986.22;5035162;28;45519;-76
2023/06/23 10:26:12;;;;;;;;;6.00;6.00;;;;;24.91;47.82;101990.22;5019437;28;46720;-77
2023/06/23 10:28:43;;;;;;;;;7.00;6.25;;;;;24.99;47.61;101983.47;5023847;28;45249;-77
2023/06/23 10:31:08;;;;;;;;;5.50;5.50;;;;;25.09;47.70;101977.56;5037924;28;45414;-77
2023/06/23 10:33:37;;;;;;;;;8.50;7.75;;;;;25.21;47.25;101976.88;5022540;28;45384;-76
2023/06/23 10:36:07;;;;;;;;;3.25;3.25;;;;;25.31;47.81;101978.06;5022818;28;45707;-76
2023/06/23 10:38:33;;;;;;;;;8.25;6.50;;;;;25.46;47.68;101975.50;5023135;28;45408;-78
2023/06/23 10:41:00;;;;;;;;;6.75;5.50;;;;;25.61;47.79;101971.91;5022547;28;45412;-78
2023/06/23 10:43:31;;;;;;;;;7.00;6.25;;;;;25.83;47.46;101983.25;5038537;28;45505;-78
2023/06/23 10:45:59;;;;;;;;;6.00;5.00;;;;;26.07;47.49;101973.69;5022724;28;46233;-78
2023/06/23 10:48:26;;;;;;;;;8.25;7.00;;;;;26.35;47.47;101963.94;5037719;28;45365;-78
2023/06/23 10:50:53;;;;;;;;;8.25;6.00;;;;;26.73;47.78;101973.28;5022917;28;45265;-79
2023/06/23 10:53:21;;;;;;;;;7.00;7.00;;;;;27.07;47.79;101977.41;5022700;28;45571;-79
2023/06/23 10:55:53;;;;;;;;;7.00;4.25;;;;;27.43;47.63;101985.91;5022534;28;45416;-79
2023/06/23 10:58:19;;;;;;;;;8.50;7.50;;;;;27.78;47.40;101979.97;5037743;28;45182;-79
2023/06/23 11:00:53;;;;;;;;;5.00;5.00;;;;;28.17;47.17;101983.63;5022692;28;45305;-79
2023/06/23 11:03:52;;;;;;;;;7.00;6.75;;;;;28.58;46.85;101984.38;5022246;28;45164;-78
2023/06/23 11:06:35;;;;;;;;;8.00;7.00;;;;;28.91;46.96;101977.53;5021905;28;48035;-80
2023/06/23 11:09:01;;;;;;;;;8.75;7.75;;;;;29.22;46.32;101979.81;5027798;28;45378;-79
2023/06/23 11:11:31;;;;;;;;;6.50;6.00;;;;;29.46;46.24;101979.84;5022324;28;45412;-79
2023/06/23 11:13:57;;;;;;;;;5.75;5.75;;;;;29.76;46.08;101979.38;5022442;28;45372;-80
2023/06/23 11:16:36;;;;;;;;;6.75;5.75;;;;;30.03;46.05;101985.53;5021831;28;45454;-79
2023/06/23 11:19:28;;;;;;;;;8.50;7.00;;;;;30.33;45.39;101987.69;5140719;27;45912;-78
2023/06/23 11:22:08;;;;;;;;;9.25;8.00;;;;;30.57;45.11;101981.31;5117943;27;45268;-78
2023/06/23 11:24:33;;;;;;;;;8.75;8.75;;;;;30.77;45.67;101977.00;5117871;27;45239;-78
2023/06/23 11:27:03;;;;;;;;;8.75;8.00;;;;;31.00;45.01;101985.09;5109682;27;45214;-79
2023/06/23 11:29:28;;;;;;;;;9.00;8.50;;;;;31.20;44.99;101984.34;5098868;27;45681;-78